sensor_id;sensor_type;location;lat;lon;timestamp;P1;durP1;ratioP1;P2;durP2;ratioP2
45863;SDS011;31579;52.354;16.974;2022-12-17T00:04:52;102.60;;;32.70;;
45863;SDS011;31579;52.354;16.974;2022-12-17T00:09:52;102.60;;;32.70;;
45863;SDS011;31579;52.354;16.974;2022-12-17T00:14:54;109.70;;;35.40;;
45863;SDS011;31579;52.354;16.974;2022-12-17T00:19:54;109.70;;;35.40;;
45863;SDS011;31579;52.354;16.974;2022-12-17T00:24:54;110.00;;;34.70;;
45863;SDS011;31579;52.354;16.974;2022-12-17T00:29:54;110.00;;;34.70;;
45863;SDS011;31579;52.354;16.974;2022-12-17T00:34:54;113.70;;;37.20;;
45863;SDS011;31579;52.354;16.974;2022-12-17T00:39:54;113.70;;;37.20;;
45863;SDS011;31579;52.354;16.974;2022-12-17T00:44:54;92.80;;;30.80;;
45863;SDS011;31579;52.354;16.974;2022-12-17T00:49:54;92.80;;;30.80;;
45863;SDS011;31579;52.354;16.974;2022-12-17T00:54:54;81.00;;;28.00;;
45863;SDS011;31579;52.354;16.974;2022-12-17T00:59:54;81.00;;;28.00;;
45863;SDS011;31579;52.354;16.974;2022-12-17T01:04:54;84.80;;;26.80;;
45863;SDS011;31579;52.354;16.974;2022-12-17T01:09:58;84.80;;;26.80;;
45863;SDS011;31579;52.354;16.974;2022-12-17T01:14:54;91.40;;;29.70;;
45863;SDS011;31579;52.354;16.974;2022-12-17T01:19:54;91.40;;;29.70;;
45863;SDS011;31579;52.354;16.974;2022-12-17T01:26:28;93.30;;;28.90;;
45863;SDS011;31579;52.354;16.974;2022-12-17T01:31:28;90.70;;;28.70;;
45863;SDS011;31579;52.354;16.974;2022-12-17T01:36:28;90.70;;;28.70;;
45863;SDS011;31579;52.354;16.974;2022-12-17T01:41:28;82.00;;;27.60;;
45863;SDS011;31579;52.354;16.974;2022-12-17T01:46:29;82.00;;;27.60;;
45863;SDS011;31579;52.354;16.974;2022-12-17T01:51:28;84.20;;;29.20;;
45863;SDS011;31579;52.354;16.974;2022-12-17T01:56:28;84.20;;;29.20;;
45863;SDS011;31579;52.354;16.974;2022-12-17T02:01:28;78.40;;;25.20;;
45863;SDS011;31579;52.354;16.974;2022-12-17T02:06:28;78.40;;;25.20;;
45863;SDS011;31579;52.354;16.974;2022-12-17T02:18:10;79.90;;;25.50;;
45863;SDS011;31579;52.354;16.974;2022-12-17T02:28:19;86.80;;;27.10;;
45863;SDS011;31579;52.354;16.974;2022-12-17T02:33:19;74.30;;;24.90;;
45863;SDS011;31579;52.354;16.974;2022-12-17T02:38:20;74.30;;;24.90;;
45863;SDS011;31579;52.354;16.974;2022-12-17T02:43:20;79.50;;;26.60;;
45863;SDS011;31579;52.354;16.974;2022-12-17T02:48:19;79.50;;;26.60;;
45863;SDS011;31579;52.354;16.974;2022-12-17T02:53:19;84.80;;;26.90;;
45863;SDS011;31579;52.354;16.974;2022-12-17T02:58:19;84.80;;;26.90;;
45863;SDS011;31579;52.354;16.974;2022-12-17T03:03:19;70.50;;;25.80;;
45863;SDS011;31579;52.354;16.974;2022-12-17T03:08:19;70.50;;;25.80;;
45863;SDS011;31579;52.354;16.974;2022-12-17T03:13:22;98.60;;;30.00;;
45863;SDS011;31579;52.354;16.974;2022-12-17T03:23:08;93.10;;;30.50;;
45863;SDS011;31579;52.354;16.974;2022-12-17T03:28:08;93.10;;;30.50;;
45863;SDS011;31579;52.354;16.974;2022-12-17T03:33:07;85.10;;;27.20;;
45863;SDS011;31579;52.354;16.974;2022-12-17T03:38:08;85.10;;;27.20;;
45863;SDS011;31579;52.354;16.974;2022-12-17T03:43:08;91.20;;;29.20;;
45863;SDS011;31579;52.354;16.974;2022-12-17T03:48:08;91.20;;;29.20;;
45863;SDS011;31579;52.354;16.974;2022-12-17T03:53:07;78.70;;;27.90;;
45863;SDS011;31579;52.354;16.974;2022-12-17T03:58:07;78.70;;;27.90;;
45863;SDS011;31579;52.354;16.974;2022-12-17T04:03:07;84.90;;;28.10;;
45863;SDS011;31579;52.354;16.974;2022-12-17T04:08:07;84.90;;;28.10;;
45863;SDS011;31579;52.354;16.974;2022-12-17T04:13:07;87.40;;;27.40;;
45863;SDS011;31579;52.354;16.974;2022-12-17T04:19:59;82.60;;;27.90;;
45863;SDS011;31579;52.354;16.974;2022-12-17T04:24:59;82.60;;;27.90;;
45863;SDS011;31579;52.354;16.974;2022-12-17T04:29:59;90.20;;;28.90;;
45863;SDS011;31579;52.354;16.974;2022-12-17T04:34:59;90.20;;;28.90;;
45863;SDS011;31579;52.354;16.974;2022-12-17T04:39:59;90.90;;;28.00;;
45863;SDS011;31579;52.354;16.974;2022-12-17T04:44:59;90.90;;;28.00;;
45863;SDS011;31579;52.354;16.974;2022-12-17T04:49:59;94.10;;;28.70;;
45863;SDS011;31579;52.354;16.974;2022-12-17T04:54:59;94.10;;;28.70;;
45863;SDS011;31579;52.354;16.974;2022-12-17T04:59:59;88.70;;;27.90;;
45863;SDS011;31579;52.354;16.974;2022-12-17T05:04:59;88.70;;;27.90;;
45863;SDS011;31579;52.354;16.974;2022-12-17T05:09:49;90.20;;;29.50;;
45863;SDS011;31579;52.354;16.974;2022-12-17T05:14:47;90.20;;;29.50;;
45863;SDS011;31579;52.354;16.974;2022-12-17T05:19:30;90.20;;;29.50;;
45863;SDS011;31579;52.354;16.974;2022-12-17T05:24:29;88.40;;;29.10;;
45863;SDS011;31579;52.354;16.974;2022-12-17T05:29:29;88.40;;;29.10;;
45863;SDS011;31579;52.354;16.974;2022-12-17T05:34:29;92.40;;;28.90;;
45863;SDS011;31579;52.354;16.974;2022-12-17T05:39:28;92.40;;;28.90;;
45863;SDS011;31579;52.354;16.974;2022-12-17T05:44:29;88.70;;;26.40;;
45863;SDS011;31579;52.354;16.974;2022-12-17T05:49:28;88.70;;;26.40;;
45863;SDS011;31579;52.354;16.974;2022-12-17T05:54:29;75.00;;;26.30;;
45863;SDS011;31579;52.354;16.974;2022-12-17T05:59:29;75.00;;;26.30;;
45863;SDS011;31579;52.354;16.974;2022-12-17T06:04:29;72.20;;;24.20;;
45863;SDS011;31579;52.354;16.974;2022-12-17T06:09:29;73.90;;;24.30;;
45863;SDS011;31579;52.354;16.974;2022-12-17T06:14:29;73.90;;;24.30;;
45863;SDS011;31579;52.354;16.974;2022-12-17T06:19:29;72.90;;;23.90;;
45863;SDS011;31579;52.354;16.974;2022-12-17T06:20:36;72.90;;;23.90;;
45863;SDS011;31579;52.354;16.974;2022-12-17T06:25:35;72.90;;;23.90;;
45863;SDS011;31579;52.354;16.974;2022-12-17T06:30:35;70.30;;;23.50;;
45863;SDS011;31579;52.354;16.974;2022-12-17T06:35:35;70.30;;;23.50;;
45863;SDS011;31579;52.354;16.974;2022-12-17T06:40:35;64.70;;;22.80;;
45863;SDS011;31579;52.354;16.974;2022-12-17T06:45:35;64.70;;;22.80;;
45863;SDS011;31579;52.354;16.974;2022-12-17T06:50:36;64.20;;;22.10;;
45863;SDS011;31579;52.354;16.974;2022-12-17T06:55:35;64.20;;;22.10;;
45863;SDS011;31579;52.354;16.974;2022-12-17T07:00:35;68.20;;;22.50;;
45863;SDS011;31579;52.354;16.974;2022-12-17T07:05:35;68.20;;;22.50;;
45863;SDS011;31579;52.354;16.974;2022-12-17T07:10:35;67.80;;;21.70;;
45863;SDS011;31579;52.354;16.974;2022-12-17T07:15:35;67.80;;;21.70;;
45863;SDS011;31579;52.354;16.974;2022-12-17T07:20:35;61.60;;;22.20;;
45863;SDS011;31579;52.354;16.974;2022-12-17T07:25:35;61.60;;;22.20;;
45863;SDS011;31579;52.354;16.974;2022-12-17T07:34:03;73.50;;;25.30;;
45863;SDS011;31579;52.354;16.974;2022-12-17T07:39:03;73.50;;;25.30;;
45863;SDS011;31579;52.354;16.974;2022-12-17T07:44:03;61.80;;;23.40;;
45863;SDS011;31579;52.354;16.974;2022-12-17T07:49:03;61.80;;;23.40;;
45863;SDS011;31579;52.354;16.974;2022-12-17T07:54:03;56.20;;;20.70;;
45863;SDS011;31579;52.354;16.974;2022-12-17T07:59:03;56.20;;;20.70;;
45863;SDS011;31579;52.354;16.974;2022-12-17T08:04:03;59.60;;;21.00;;
45863;SDS011;31579;52.354;16.974;2022-12-17T08:09:07;59.60;;;21.00;;
45863;SDS011;31579;52.354;16.974;2022-12-17T08:14:03;52.60;;;19.30;;
45863;SDS011;31579;52.354;16.974;2022-12-17T08:19:03;52.60;;;19.30;;
45863;SDS011;31579;52.354;16.974;2022-12-17T08:24:03;50.50;;;19.40;;
45863;SDS011;31579;52.354;16.974;2022-12-17T08:29:13;50.50;;;19.40;;
45863;SDS011;31579;52.354;16.974;2022-12-17T08:34:11;44.90;;;17.10;;
45863;SDS011;31579;52.354;16.974;2022-12-17T08:39:11;43.40;;;17.40;;
45863;SDS011;31579;52.354;16.974;2022-12-17T08:44:11;43.40;;;17.40;;
45863;SDS011;31579;52.354;16.974;2022-12-17T08:49:11;44.50;;;18.40;;
45863;SDS011;31579;52.354;16.974;2022-12-17T08:54:11;44.50;;;18.40;;
45863;SDS011;31579;52.354;16.974;2022-12-17T08:59:11;48.60;;;18.40;;
45863;SDS011;31579;52.354;16.974;2022-12-17T09:04:11;48.60;;;18.40;;
45863;SDS011;31579;52.354;16.974;2022-12-17T09:09:11;47.70;;;18.10;;
45863;SDS011;31579;52.354;16.974;2022-12-17T09:14:11;47.70;;;18.10;;
45863;SDS011;31579;52.354;16.974;2022-12-17T09:19:11;53.60;;;21.30;;
45863;SDS011;31579;52.354;16.974;2022-12-17T09:24:11;53.60;;;21.30;;
45863;SDS011;31579;52.354;16.974;2022-12-17T09:29:14;50.70;;;20.20;;
45863;SDS011;31579;52.354;16.974;2022-12-17T09:31:23;50.70;;;20.20;;
45863;SDS011;31579;52.354;16.974;2022-12-17T09:36:21;50.70;;;20.20;;
45863;SDS011;31579;52.354;16.974;2022-12-17T09:51:22;39.10;;;15.90;;
45863;SDS011;31579;52.354;16.974;2022-12-17T09:56:22;39.10;;;15.90;;
45863;SDS011;31579;52.354;16.974;2022-12-17T10:01:24;36.00;;;16.60;;
45863;SDS011;31579;52.354;16.974;2022-12-17T10:06:22;36.00;;;16.60;;
45863;SDS011;31579;52.354;16.974;2022-12-17T10:16:24;39.40;;;17.10;;
45863;SDS011;31579;52.354;16.974;2022-12-17T10:21:21;38.40;;;16.20;;
45863;SDS011;31579;52.354;16.974;2022-12-17T10:26:25;38.40;;;16.20;;
45863;SDS011;31579;52.354;16.974;2022-12-17T10:31:25;37.10;;;15.10;;
45863;SDS011;31579;52.354;16.974;2022-12-17T10:36:22;37.10;;;15.10;;
45863;SDS011;31579;52.354;16.974;2022-12-17T10:41:23;39.30;;;15.50;;
45863;SDS011;31579;52.354;16.974;2022-12-17T10:47:13;39.30;;;15.50;;
45863;SDS011;31579;52.354;16.974;2022-12-17T10:57:06;37.30;;;15.30;;
45863;SDS011;31579;52.354;16.974;2022-12-17T11:02:09;38.30;;;16.00;;
45863;SDS011;31579;52.354;16.974;2022-12-17T11:07:06;38.30;;;16.00;;
45863;SDS011;31579;52.354;16.974;2022-12-17T11:12:06;36.10;;;15.90;;
45863;SDS011;31579;52.354;16.974;2022-12-17T11:17:06;36.10;;;15.90;;
45863;SDS011;31579;52.354;16.974;2022-12-17T11:22:18;36.20;;;16.40;;
45863;SDS011;31579;52.354;16.974;2022-12-17T11:27:06;36.20;;;16.40;;
45863;SDS011;31579;52.354;16.974;2022-12-17T11:32:14;38.30;;;16.70;;
45863;SDS011;31579;52.354;16.974;2022-12-17T11:37:39;38.30;;;16.70;;
45863;SDS011;31579;52.354;16.974;2022-12-17T12:10:13;43.50;;;19.70;;
45863;SDS011;31579;52.354;16.974;2022-12-17T12:15:17;43.50;;;19.70;;
45863;SDS011;31579;52.354;16.974;2022-12-17T12:23:28;43.50;;;19.70;;
45863;SDS011;31579;52.354;16.974;2022-12-17T12:37:49;43.50;;;19.70;;
45863;SDS011;31579;52.354;16.974;2022-12-17T12:42:53;69.90;;;33.50;;
45863;SDS011;31579;52.354;16.974;2022-12-17T12:52:49;45.70;;;23.40;;
45863;SDS011;31579;52.354;16.974;2022-12-17T13:02:49;44.60;;;19.90;;
45863;SDS011;31579;52.354;16.974;2022-12-17T13:07:49;44.60;;;19.90;;
45863;SDS011;31579;52.354;16.974;2022-12-17T13:12:49;48.80;;;20.70;;
45863;SDS011;31579;52.354;16.974;2022-12-17T13:17:54;48.80;;;20.70;;
45863;SDS011;31579;52.354;16.974;2022-12-17T13:22:53;45.30;;;20.80;;
45863;SDS011;31579;52.354;16.974;2022-12-17T13:27:49;45.30;;;20.80;;
45863;SDS011;31579;52.354;16.974;2022-12-17T13:42:49;44.40;;;19.40;;
45863;SDS011;31579;52.354;16.974;2022-12-17T13:47:52;44.40;;;19.40;;
45863;SDS011;31579;52.354;16.974;2022-12-17T13:52:49;44.30;;;19.20;;
45863;SDS011;31579;52.354;16.974;2022-12-17T13:57:50;44.30;;;19.20;;
45863;SDS011;31579;52.354;16.974;2022-12-17T14:02:50;45.10;;;18.50;;
45863;SDS011;31579;52.354;16.974;2022-12-17T14:07:51;45.10;;;18.50;;
45863;SDS011;31579;52.354;16.974;2022-12-17T14:12:49;48.30;;;20.10;;
45863;SDS011;31579;52.354;16.974;2022-12-17T14:17:49;48.30;;;20.10;;
45863;SDS011;31579;52.354;16.974;2022-12-17T14:22:50;48.30;;;21.60;;
45863;SDS011;31579;52.354;16.974;2022-12-17T14:32:49;47.10;;;21.40;;
45863;SDS011;31579;52.354;16.974;2022-12-17T14:37:49;47.10;;;21.40;;
45863;SDS011;31579;52.354;16.974;2022-12-17T14:42:50;52.70;;;24.30;;
45863;SDS011;31579;52.354;16.974;2022-12-17T14:52:49;52.70;;;24.30;;
45863;SDS011;31579;52.354;16.974;2022-12-17T14:57:49;52.70;;;24.30;;
45863;SDS011;31579;52.354;16.974;2022-12-17T15:02:53;55.60;;;24.20;;
45863;SDS011;31579;52.354;16.974;2022-12-17T15:07:48;55.60;;;24.20;;
45863;SDS011;31579;52.354;16.974;2022-12-17T15:12:48;56.40;;;22.90;;
45863;SDS011;31579;52.354;16.974;2022-12-17T15:17:48;56.40;;;22.90;;
45863;SDS011;31579;52.354;16.974;2022-12-17T15:22:48;60.00;;;25.00;;
45863;SDS011;31579;52.354;16.974;2022-12-17T15:27:48;60.00;;;25.00;;
45863;SDS011;31579;52.354;16.974;2022-12-17T15:32:48;56.50;;;24.80;;
45863;SDS011;31579;52.354;16.974;2022-12-17T15:37:48;56.50;;;24.80;;
45863;SDS011;31579;52.354;16.974;2022-12-17T15:42:48;65.20;;;26.00;;
45863;SDS011;31579;52.354;16.974;2022-12-17T15:47:48;65.20;;;26.00;;
45863;SDS011;31579;52.354;16.974;2022-12-17T15:52:48;64.90;;;25.60;;
45863;SDS011;31579;52.354;16.974;2022-12-17T16:02:24;64.90;;;25.60;;
45863;SDS011;31579;52.354;16.974;2022-12-17T16:06:05;64.90;;;25.60;;
45863;SDS011;31579;52.354;16.974;2022-12-17T16:11:06;58.40;;;23.00;;
45863;SDS011;31579;52.354;16.974;2022-12-17T16:16:04;58.40;;;23.00;;
45863;SDS011;31579;52.354;16.974;2022-12-17T16:21:04;53.30;;;22.70;;
45863;SDS011;31579;52.354;16.974;2022-12-17T16:26:04;53.30;;;22.70;;
45863;SDS011;31579;52.354;16.974;2022-12-17T16:31:05;47.60;;;20.30;;
45863;SDS011;31579;52.354;16.974;2022-12-17T16:36:04;47.60;;;20.30;;
45863;SDS011;31579;52.354;16.974;2022-12-17T16:41:03;43.80;;;18.80;;
45863;SDS011;31579;52.354;16.974;2022-12-17T16:46:03;43.80;;;18.80;;
45863;SDS011;31579;52.354;16.974;2022-12-17T16:51:14;41.10;;;18.20;;
45863;SDS011;31579;52.354;16.974;2022-12-17T16:56:04;41.10;;;18.20;;
45863;SDS011;31579;52.354;16.974;2022-12-17T17:01:03;47.40;;;20.40;;
45863;SDS011;31579;52.354;16.974;2022-12-17T17:01:54;47.40;;;20.40;;
45863;SDS011;31579;52.354;16.974;2022-12-17T17:03:05;47.40;;;20.40;;
45863;SDS011;31579;52.354;16.974;2022-12-17T17:08:03;42.00;;;17.30;;
45863;SDS011;31579;52.354;16.974;2022-12-17T17:13:03;42.00;;;17.30;;
45863;SDS011;31579;52.354;16.974;2022-12-17T17:18:03;43.00;;;19.20;;
45863;SDS011;31579;52.354;16.974;2022-12-17T17:23:03;43.00;;;19.20;;
45863;SDS011;31579;52.354;16.974;2022-12-17T17:28:03;45.10;;;18.30;;
45863;SDS011;31579;52.354;16.974;2022-12-17T17:33:03;45.10;;;18.30;;
45863;SDS011;31579;52.354;16.974;2022-12-17T17:38:03;40.90;;;18.10;;
45863;SDS011;31579;52.354;16.974;2022-12-17T17:43:03;40.90;;;18.10;;
45863;SDS011;31579;52.354;16.974;2022-12-17T17:48:03;45.20;;;20.00;;
45863;SDS011;31579;52.354;16.974;2022-12-17T17:53:03;45.20;;;20.00;;
45863;SDS011;31579;52.354;16.974;2022-12-17T17:58:03;44.80;;;17.90;;
45863;SDS011;31579;52.354;16.974;2022-12-17T18:03:07;44.80;;;17.90;;
45863;SDS011;31579;52.354;16.974;2022-12-17T18:08:03;45.40;;;19.60;;
45863;SDS011;31579;52.354;16.974;2022-12-17T18:13:03;45.40;;;19.60;;
45863;SDS011;31579;52.354;16.974;2022-12-17T18:18:03;53.70;;;21.90;;
45863;SDS011;31579;52.354;16.974;2022-12-17T18:23:05;53.70;;;21.90;;
45863;SDS011;31579;52.354;16.974;2022-12-17T18:28:03;44.40;;;18.70;;
45863;SDS011;31579;52.354;16.974;2022-12-17T18:33:03;44.40;;;18.70;;
45863;SDS011;31579;52.354;16.974;2022-12-17T18:38:03;50.50;;;20.10;;
45863;SDS011;31579;52.354;16.974;2022-12-17T18:43:04;50.50;;;20.10;;
45863;SDS011;31579;52.354;16.974;2022-12-17T18:48:03;52.40;;;23.20;;
45863;SDS011;31579;52.354;16.974;2022-12-17T18:53:03;52.40;;;23.20;;
45863;SDS011;31579;52.354;16.974;2022-12-17T18:58:03;55.70;;;24.50;;
45863;SDS011;31579;52.354;16.974;2022-12-17T19:03:03;55.70;;;24.50;;
45863;SDS011;31579;52.354;16.974;2022-12-17T19:08:58;41.20;;;16.10;;
45863;SDS011;31579;52.354;16.974;2022-12-17T19:13:58;41.20;;;16.10;;
45863;SDS011;31579;52.354;16.974;2022-12-17T19:18:59;43.20;;;18.00;;
45863;SDS011;31579;52.354;16.974;2022-12-17T19:29:06;40.80;;;18.20;;
45863;SDS011;31579;52.354;16.974;2022-12-17T19:34:09;40.80;;;18.20;;
45863;SDS011;31579;52.354;16.974;2022-12-17T19:39:07;39.60;;;17.60;;
45863;SDS011;31579;52.354;16.974;2022-12-17T19:44:07;39.60;;;17.60;;
45863;SDS011;31579;52.354;16.974;2022-12-17T19:49:06;51.20;;;20.90;;
45863;SDS011;31579;52.354;16.974;2022-12-17T19:54:06;51.20;;;20.90;;
45863;SDS011;31579;52.354;16.974;2022-12-17T19:59:04;43.30;;;17.60;;
45863;SDS011;31579;52.354;16.974;2022-12-17T20:04:01;43.30;;;17.60;;
45863;SDS011;31579;52.354;16.974;2022-12-17T20:09:02;41.70;;;17.10;;
45863;SDS011;31579;52.354;16.974;2022-12-17T20:19:02;37.90;;;15.50;;
45863;SDS011;31579;52.354;16.974;2022-12-17T20:24:01;37.90;;;15.50;;
45863;SDS011;31579;52.354;16.974;2022-12-17T20:29:02;37.50;;;16.50;;
45863;SDS011;31579;52.354;16.974;2022-12-17T20:34:02;37.50;;;16.50;;
45863;SDS011;31579;52.354;16.974;2022-12-17T20:39:05;39.60;;;15.90;;
45863;SDS011;31579;52.354;16.974;2022-12-17T20:43:21;39.60;;;15.90;;
45863;SDS011;31579;52.354;16.974;2022-12-17T20:48:20;45.10;;;18.80;;
45863;SDS011;31579;52.354;16.974;2022-12-17T20:53:19;45.10;;;18.80;;
45863;SDS011;31579;52.354;16.974;2022-12-17T20:58:19;48.00;;;18.70;;
45863;SDS011;31579;52.354;16.974;2022-12-17T21:03:19;48.00;;;18.70;;
45863;SDS011;31579;52.354;16.974;2022-12-17T21:08:19;52.10;;;21.80;;
45863;SDS011;31579;52.354;16.974;2022-12-17T21:13:19;52.10;;;21.80;;
45863;SDS011;31579;52.354;16.974;2022-12-17T21:18:19;53.20;;;21.50;;
45863;SDS011;31579;52.354;16.974;2022-12-17T21:23:19;53.20;;;21.50;;
45863;SDS011;31579;52.354;16.974;2022-12-17T21:28:19;58.00;;;21.50;;
45863;SDS011;31579;52.354;16.974;2022-12-17T21:33:19;58.00;;;21.50;;
45863;SDS011;31579;52.354;16.974;2022-12-17T21:38:19;51.10;;;20.10;;
45863;SDS011;31579;52.354;16.974;2022-12-17T21:40:14;51.10;;;20.10;;
45863;SDS011;31579;52.354;16.974;2022-12-17T21:45:12;51.10;;;20.10;;
45863;SDS011;31579;52.354;16.974;2022-12-17T21:50:12;54.50;;;21.20;;
45863;SDS011;31579;52.354;16.974;2022-12-17T21:55:12;54.50;;;21.20;;
45863;SDS011;31579;52.354;16.974;2022-12-17T22:00:12;56.60;;;21.20;;
45863;SDS011;31579;52.354;16.974;2022-12-17T22:05:12;56.60;;;21.20;;
45863;SDS011;31579;52.354;16.974;2022-12-17T22:10:12;52.20;;;20.40;;
45863;SDS011;31579;52.354;16.974;2022-12-17T22:15:12;52.20;;;20.40;;
45863;SDS011;31579;52.354;16.974;2022-12-17T22:20:15;56.50;;;21.50;;
45863;SDS011;31579;52.354;16.974;2022-12-17T22:25:12;56.50;;;21.50;;
45863;SDS011;31579;52.354;16.974;2022-12-17T22:30:14;54.40;;;21.60;;
45863;SDS011;31579;52.354;16.974;2022-12-17T22:35:12;54.40;;;21.60;;
45863;SDS011;31579;52.354;16.974;2022-12-17T22:40:14;54.30;;;20.10;;
45863;SDS011;31579;52.354;16.974;2022-12-17T22:45:12;54.30;;;20.10;;
45863;SDS011;31579;52.354;16.974;2022-12-17T22:50:12;63.10;;;24.50;;
45863;SDS011;31579;52.354;16.974;2022-12-17T22:55:12;63.10;;;24.50;;
45863;SDS011;31579;52.354;16.974;2022-12-17T23:00:16;63.40;;;24.60;;
45863;SDS011;31579;52.354;16.974;2022-12-17T23:05:12;63.40;;;24.60;;
45863;SDS011;31579;52.354;16.974;2022-12-17T23:10:12;56.90;;;22.20;;
45863;SDS011;31579;52.354;16.974;2022-12-17T23:15:12;56.90;;;22.20;;
45863;SDS011;31579;52.354;16.974;2022-12-17T23:20:14;69.10;;;24.80;;
45863;SDS011;31579;52.354;16.974;2022-12-17T23:27:18;62.90;;;23.30;;
45863;SDS011;31579;52.354;16.974;2022-12-17T23:32:18;62.90;;;23.30;;
45863;SDS011;31579;52.354;16.974;2022-12-17T23:37:18;65.90;;;23.40;;
45863;SDS011;31579;52.354;16.974;2022-12-17T23:42:18;65.90;;;23.40;;
45863;SDS011;31579;52.354;16.974;2022-12-17T23:47:19;69.10;;;24.70;;
45863;SDS011;31579;52.354;16.974;2022-12-17T23:52:18;69.10;;;24.70;;
45863;SDS011;31579;52.354;16.974;2022-12-17T23:57:18;62.40;;;22.20;;
